Terminal Aerodrome Forecast
Issued by NWS

Home | Current Version | Previous Version | Text Only | Print | Product List | Glossary On
Versions: 1 2 3 4 5 6 7 8 9 10 11 12 13 14 15
796
FTUS46 KMTR 200534
TAFSNS
TAF
KSNS 200534Z 2006/2106 22012KT P6SM SKC
     FM200800 25008KT P6SM SKC
     FM201000 28006KT P6SM FEW008
      TEMPO 2013/2016 BKN008
     FM202000 27008G14KT P6SM SCT150
     FM210300 26008KT P6SM BKN050=

USA.gov is the U.S. government's official web portal to all federal, state and local government web resources and services.